Time;durP1;ratioP1;P1;durP2;ratioP2;P2;SDS_P1;SDS_P2;PMS_P1;PMS_P2;Temp;Humidity;BMP_temperature;BMP_pressure;BME280_temperature;BME280_humidity;BME280_pressure;Samples;Min_cycle;Max_cycle;Signal;HPM_P1;HPM_P2
2023/04/05 00:01:54;;;;;;;20.93;8.87;;;-1.90;99.90;;;;;;4957114;28;20057;-90
2023/04/05 00:04:20;;;;;;;18.17;9.23;;;-1.90;99.90;;;;;;4956582;28;20481;-91
2023/04/05 00:06:51;;;;;;;13.67;8.10;;;-2.00;99.90;;;;;;4956632;28;20481;-91
2023/04/05 00:09:19;;;;;;;14.73;8.23;;;-2.00;99.90;;;;;;4939650;29;20470;-91
2023/04/05 00:11:45;;;;;;;14.60;8.97;;;-2.00;99.90;;;;;;4957363;29;20542;-91
2023/04/05 00:14:11;;;;;;;14.23;7.40;;;-2.00;99.90;;;;;;4957082;29;20470;-89
2023/04/05 00:16:37;;;;;;;11.77;7.23;;;-2.10;99.90;;;;;;4956978;28;20493;-90
2023/04/05 00:19:03;;;;;;;13.37;7.97;;;-2.10;99.90;;;;;;4939893;29;20024;-91
2023/04/05 00:21:29;;;;;;;14.80;8.07;;;-2.10;99.90;;;;;;4957167;29;20450;-90
2023/04/05 00:23:57;;;;;;;13.53;7.53;;;-2.10;99.90;;;;;;4956778;28;20027;-89
2023/04/05 00:26:24;;;;;;;15.03;7.70;;;-2.10;99.90;;;;;;4956550;28;20493;-90
2023/04/05 00:28:50;;;;;;;13.90;7.20;;;-2.10;99.90;;;;;;4941165;29;20481;-90
2023/04/05 00:31:17;;;;;;;14.43;7.67;;;-2.10;99.90;;;;;;4942733;29;20529;-91
2023/04/05 00:33:43;;;;;;;12.30;6.97;;;-2.10;99.90;;;;;;4959993;28;20019;-91
2023/04/05 00:36:16;;;;;;;13.20;7.37;;;-2.20;99.90;;;;;;4959997;29;20477;-91
2023/04/05 00:38:43;;;;;;;12.63;7.33;;;-2.20;99.90;;;;;;4959807;28;20537;-89
2023/04/05 00:41:10;;;;;;;11.33;7.63;;;-2.20;99.90;;;;;;4959756;28;20409;-89
2023/04/05 00:43:37;;;;;;;11.20;7.37;;;-2.30;99.90;;;;;;4960041;28;20462;-90
2023/04/05 00:46:05;;;;;;;15.07;8.60;;;-2.20;99.90;;;;;;4942860;29;20459;-90
2023/04/05 00:48:33;;;;;;;14.40;7.73;;;-2.30;99.90;;;;;;4959913;29;20031;-89
2023/04/05 00:50:59;;;;;;;23.13;8.73;;;-2.30;99.90;;;;;;4942595;29;20375;-90
2023/04/05 00:53:31;;;;;;;12.00;7.33;;;-2.30;99.90;;;;;;4960194;29;20443;-91
2023/04/05 00:55:57;;;;;;;12.97;7.67;;;-2.30;99.90;;;;;;4959839;29;20489;-90
2023/04/05 00:58:26;;;;;;;10.30;6.50;;;-2.30;99.90;;;;;;4959235;28;20484;-90
2023/04/05 01:01:17;;;;;;;11.70;7.00;;;-2.30;99.90;;;;;;4959858;28;20039;-89
2023/04/05 01:03:52;;;;;;;10.60;7.03;;;-2.30;99.90;;;;;;4942220;29;20381;-89
2023/04/05 01:06:39;;;;;;;12.98;7.70;;;-2.30;99.90;;;;;;4959795;29;20468;-89
2023/04/05 01:09:22;;;;;;;16.13;7.87;;;-2.30;99.90;;;;;;4960262;29;20023;-90
2023/04/05 01:11:48;;;;;;;13.33;8.37;;;-2.40;99.90;;;;;;4959535;29;20470;-90
2023/04/05 01:14:14;;;;;;;12.37;7.67;;;-2.30;99.90;;;;;;4959470;28;20476;-90
2023/04/05 01:16:40;;;;;;;12.07;7.20;;;-2.30;99.90;;;;;;4959925;29;20027;-89
2023/04/05 01:19:08;;;;;;;13.47;7.97;;;-2.30;99.90;;;;;;4942278;29;20027;-90
2023/04/05 01:21:37;;;;;;;12.20;7.53;;;-2.30;99.90;;;;;;4959651;28;20513;-88
2023/04/05 01:24:31;;;;;;;16.50;7.97;;;-2.30;99.90;;;;;;4959654;28;20425;-90
2023/04/05 01:27:05;;;;;;;13.40;8.00;;;-2.40;99.90;;;;;;4959788;29;20557;-90
2023/04/05 01:29:31;;;;;;;10.88;7.15;;;-2.40;99.90;;;;;;4959358;29;20458;-90
2023/04/05 01:32:24;;;;;;;12.40;7.53;;;-2.40;99.90;;;;;;4941838;29;20082;-91
2023/04/05 01:35:01;;;;;;;15.93;7.53;;;-2.40;99.90;;;;;;4941826;29;20418;-91
2023/04/05 01:37:31;;;;;;;12.70;7.27;;;-2.40;99.90;;;;;;4959470;29;20459;-91
2023/04/05 01:39:58;;;;;;;10.87;7.20;;;-2.40;99.90;;;;;;4941266;29;20462;-91
2023/04/05 01:42:25;;;;;;;11.80;7.37;;;-2.50;99.90;;;;;;4958947;28;20473;-88
2023/04/05 01:44:55;;;;;;;11.40;7.90;;;-2.50;99.90;;;;;;4958578;28;20497;-89
2023/04/05 01:47:21;;;;;;;14.47;8.00;;;-2.40;99.90;;;;;;4941710;29;20513;-89
2023/04/05 01:49:47;;;;;;;17.83;10.47;;;-2.50;99.90;;;;;;4941830;29;20375;-90
2023/04/05 01:52:13;;;;;;;20.13;10.73;;;-2.50;99.90;;;;;;4958734;29;20019;-90
2023/04/05 01:54:39;;;;;;;24.27;11.77;;;-2.50;99.90;;;;;;4958847;29;20406;-91
2023/04/05 01:57:05;;;;;;;15.93;9.27;;;-2.50;99.90;;;;;;4958764;28;20525;-90
2023/04/05 01:59:31;;;;;;;17.03;10.07;;;-2.50;99.90;;;;;;4958853;29;20031;-90
2023/04/05 02:01:57;;;;;;;17.90;9.43;;;-2.50;99.90;;;;;;4925779;29;20047;-91
2023/04/05 02:04:23;;;;;;;12.80;8.53;;;-2.50;99.90;;;;;;4958650;28;20034;-91
2023/04/05 02:06:48;;;;;;;14.10;8.33;;;-2.50;99.90;;;;;;4941487;29;20038;-91
2023/04/05 02:09:14;;;;;;;13.37;7.70;;;-2.50;99.90;;;;;;4958722;28;20102;-89
2023/04/05 02:11:40;;;;;;;12.27;7.40;;;-2.50;99.90;;;;;;4958818;28;20478;-89
2023/04/05 02:14:06;;;;;;;14.47;7.30;;;-2.50;99.90;;;;;;4958869;29;20027;-89
2023/04/05 02:16:32;;;;;;;10.90;7.47;;;-2.40;99.90;;;;;;4958272;29;20031;-90
2023/04/05 02:18:59;;;;;;;16.13;7.10;;;-2.40;99.90;;;;;;4941487;29;20374;-90
2023/04/05 02:21:25;;;;;;;10.30;6.60;;;-2.40;99.90;;;;;;4958619;28;20458;-90
2023/04/05 02:23:54;;;;;;;14.53;7.30;;;-2.40;99.90;;;;;;4958302;28;20370;-90
2023/04/05 02:26:21;;;;;;;10.57;6.93;;;-2.40;99.90;;;;;;4941251;29;20450;-90
2023/04/05 02:28:47;;;;;;;13.97;7.00;;;-2.40;99.90;;;;;;4940553;29;20517;-89
2023/04/05 02:31:13;;;;;;;13.00;6.67;;;-2.40;99.90;;;;;;4958078;28;20513;-90
2023/04/05 02:33:40;;;;;;;13.80;7.73;;;-2.40;99.90;;;;;;4941112;29;20458;-90
2023/04/05 02:36:11;;;;;;;12.53;6.80;;;-2.40;99.90;;;;;;4957999;29;20533;-90
2023/04/05 02:38:37;;;;;;;16.57;7.03;;;-2.40;99.90;;;;;;4940922;29;20462;-90
2023/04/05 02:41:03;;;;;;;10.97;7.07;;;-2.40;99.90;;;;;;4941037;29;20038;-89
2023/04/05 02:43:29;;;;;;;15.57;6.83;;;-2.40;99.90;;;;;;4957872;29;20522;-91
2023/04/05 02:45:57;;;;;;;10.90;6.80;;;-2.40;99.90;;;;;;4957915;28;20059;-91
2023/04/05 02:48:23;;;;;;;14.63;7.90;;;-2.40;99.90;;;;;;4958273;28;20455;-90
2023/04/05 02:51:03;;;;;;;9.90;6.33;;;-2.40;99.90;;;;;;5113719;27;20388;-88
2023/04/05 02:53:29;;;;;;;12.13;7.47;;;-2.40;99.90;;;;;;5113331;28;20473;-89
2023/04/05 02:56:01;;;;;;;14.93;7.93;;;-2.40;99.90;;;;;;5113374;28;20526;-89
2023/04/05 02:58:30;;;;;;;11.57;7.37;;;-2.50;99.90;;;;;;5113403;28;20453;-89
2023/04/05 03:01:00;;;;;;;13.37;8.13;;;-2.50;99.90;;;;;;5113102;28;20446;-88
2023/04/05 03:03:28;;;;;;;12.47;7.83;;;-2.50;99.90;;;;;;5113205;28;20421;-90
2023/04/05 03:06:06;;;;;;;15.10;8.07;;;-2.50;99.90;;;;;;5113025;28;20358;-89
2023/04/05 03:08:31;;;;;;;17.00;8.13;;;-2.50;99.90;;;;;;5112663;28;20446;-91
2023/04/05 03:11:00;;;;;;;10.77;7.20;;;-2.50;99.90;;;;;;5112341;28;20043;-90
2023/04/05 03:13:29;;;;;;;13.70;7.73;;;-2.50;99.90;;;;;;5112577;28;20457;-88
2023/04/05 03:15:55;;;;;;;13.13;7.80;;;-2.50;99.90;;;;;;5112444;28;20450;-88
2023/04/05 03:18:24;;;;;;;11.63;7.50;;;-2.60;99.90;;;;;;5110689;28;20443;-89
2023/04/05 03:20:55;;;;;;;14.37;7.50;;;-2.60;99.90;;;;;;5112034;28;20469;-89
2023/04/05 03:23:29;;;;;;;13.73;7.37;;;-2.60;99.90;;;;;;5110591;28;20468;-89
2023/04/05 03:26:02;;;;;;;13.17;7.30;;;-2.60;99.90;;;;;;5112596;28;20459;-89
2023/04/05 03:28:31;;;;;;;11.57;7.40;;;-2.60;99.90;;;;;;5112656;28;20534;-91
2023/04/05 03:31:00;;;;;;;16.67;8.30;;;-2.60;99.90;;;;;;5112184;28;20465;-88
2023/04/05 03:33:28;;;;;;;11.10;7.87;;;-2.60;99.90;;;;;;5111833;28;20335;-89
2023/04/05 03:35:54;;;;;;;11.43;8.50;;;-2.60;99.90;;;;;;5113083;28;20519;-88
2023/04/05 03:38:20;;;;;;;14.77;8.17;;;-2.50;99.90;;;;;;5114006;28;20008;-90
2023/04/05 03:40:46;;;;;;;13.73;8.00;;;-2.50;99.90;;;;;;5113285;28;20094;-90
2023/04/05 03:43:12;;;;;;;14.50;8.43;;;-2.50;99.90;;;;;;5112362;28;20421;-90
2023/04/05 03:45:38;;;;;;;15.67;8.40;;;-2.50;99.90;;;;;;5111037;28;20020;-90
2023/04/05 03:48:04;;;;;;;14.47;8.27;;;-2.50;99.90;;;;;;5112493;28;20099;-90
2023/04/05 03:50:30;;;;;;;11.90;7.97;;;-2.50;99.90;;;;;;5113048;28;20488;-90
2023/04/05 03:52:56;;;;;;;13.40;8.50;;;-2.50;99.90;;;;;;5112928;28;20537;-90
2023/04/05 03:55:22;;;;;;;13.43;8.50;;;-2.50;99.90;;;;;;5113304;28;20113;-91
2023/04/05 03:57:48;;;;;;;16.03;8.53;;;-2.50;99.90;;;;;;5112763;28;20363;-90
2023/04/05 04:00:16;;;;;;;13.57;8.77;;;-2.50;99.90;;;;;;5110523;28;20565;-90
2023/04/05 04:02:47;;;;;;;14.40;9.13;;;-2.50;99.90;;;;;;5098345;28;20411;-90
2023/04/05 04:05:14;;;;;;;15.57;8.80;;;-2.50;99.90;;;;;;5098902;28;20027;-90
2023/04/05 04:07:42;;;;;;;16.53;8.50;;;-2.50;99.90;;;;;;5099369;28;20458;-89
2023/04/05 04:10:09;;;;;;;13.37;9.17;;;-2.50;99.90;;;;;;5099787;28;20465;-90
2023/04/05 04:12:36;;;;;;;15.87;8.73;;;-2.60;99.90;;;;;;5097748;28;20465;-90
2023/04/05 04:15:02;;;;;;;15.20;9.20;;;-2.50;99.90;;;;;;5097416;28;20027;-90
2023/04/05 04:17:30;;;;;;;15.40;8.53;;;-2.60;99.90;;;;;;5097177;28;20533;-89
2023/04/05 04:19:57;;;;;;;15.90;9.33;;;-2.60;99.90;;;;;;5096686;28;20481;-86
2023/04/05 04:22:31;;;;;;;17.03;9.87;;;-2.60;99.90;;;;;;5096138;28;20443;-87
2023/04/05 04:25:03;;;;;;;14.23;9.37;;;-2.60;99.90;;;;;;5094723;28;20458;-87
2023/04/05 04:27:30;;;;;;;12.97;8.80;;;-2.70;99.90;;;;;;5094316;28;20530;-86
2023/04/05 04:30:02;;;;;;;15.37;9.30;;;-2.70;99.90;;;;;;5095744;28;20453;-86
2023/04/05 04:35:17;;;;;;;15.27;8.23;;;-2.70;99.90;;;;;;5095994;28;20023;-86
2023/04/05 04:37:51;;;;;;;13.37;8.90;;;-2.70;99.90;;;;;;5095896;28;20459;-86
2023/04/05 04:40:17;;;;;;;14.85;9.45;;;-2.70;99.90;;;;;;5094486;28;20428;-87
2023/04/05 04:42:47;;;;;;;16.23;8.93;;;-2.70;99.90;;;;;;5095497;28;20450;-87
2023/04/05 04:45:18;;;;;;;13.17;8.97;;;-2.70;99.90;;;;;;5095521;28;20477;-86
2023/04/05 04:47:48;;;;;;;15.13;9.87;;;-2.80;99.90;;;;;;5095678;28;20458;-86
2023/04/05 04:50:15;;;;;;;15.63;9.23;;;-2.80;99.90;;;;;;5094310;28;20362;-86
2023/04/05 04:52:42;;;;;;;15.43;9.33;;;-2.80;99.90;;;;;;5095497;28;20449;-86
2023/04/05 04:55:09;;;;;;;13.77;9.93;;;-2.70;99.90;;;;;;5095664;28;20423;-86
2023/04/05 04:57:36;;;;;;;17.33;10.57;;;-2.80;99.90;;;;;;5096433;28;20396;-92
2023/04/05 05:00:07;;;;;;;16.43;11.17;;;-2.70;99.90;;;;;;5101146;28;20050;-94
2023/04/05 05:02:37;;;;;;;23.05;11.90;;;-2.70;99.90;;;;;;5100934;28;20550;-93
2023/04/05 05:05:04;;;;;;;21.80;10.27;;;-2.70;99.90;;;;;;5101080;28;20031;-94
2023/04/05 05:07:30;;;;;;;18.93;10.90;;;-2.70;99.90;;;;;;5101066;28;20590;-93
2023/04/05 05:09:56;;;;;;;18.07;9.47;;;-2.70;99.90;;;;;;5101508;28;20493;-94
2023/04/05 05:12:22;;;;;;;20.23;9.37;;;-2.70;99.90;;;;;;5107419;28;20026;-92
2023/04/05 05:14:48;;;;;;;14.77;9.40;;;-2.70;99.90;;;;;;5105604;28;20024;-94
2023/04/05 05:17:15;;;;;;;16.80;9.60;;;-2.60;99.90;;;;;;5108971;28;20054;-95
2023/04/05 05:19:41;;;;;;;20.50;9.47;;;-2.70;99.90;;;;;;5108269;28;20351;-94
2023/04/05 05:22:07;;;;;;;20.40;9.50;;;-2.60;99.90;;;;;;5102849;28;20374;-94
2023/04/05 05:24:33;;;;;;;20.07;10.60;;;-2.60;99.90;;;;;;5102102;28;20173;-94
2023/04/05 05:26:59;;;;;;;16.90;10.93;;;-2.50;99.90;;;;;;5100104;28;20481;-94
2023/04/05 05:29:25;;;;;;;19.27;10.13;;;-2.50;99.90;;;;;;5101243;28;20020;-94
2023/04/05 05:31:51;;;;;;;19.67;9.97;;;-2.30;99.90;;;;;;5100652;28;20051;-95
2023/04/05 05:34:18;;;;;;;24.17;10.17;;;-2.20;99.90;;;;;;5101872;28;20023;-95
2023/04/05 05:36:44;;;;;;;22.03;10.40;;;-2.10;99.90;;;;;;5100010;28;20020;-95
2023/04/05 05:39:10;;;;;;;23.30;9.97;;;-2.10;99.90;;;;;;5099728;28;20462;-94
2023/04/05 05:41:36;;;;;;;24.83;10.77;;;-2.00;99.90;;;;;;5099982;28;20465;-94
2023/04/05 05:44:02;;;;;;;18.03;9.13;;;-2.00;99.90;;;;;;5101610;28;20134;-95
2023/04/05 05:46:32;;;;;;;18.63;9.47;;;-1.90;99.90;;;;;;5099729;28;20091;-95
2023/04/05 05:48:58;;;;;;;19.60;9.40;;;-1.90;99.90;;;;;;5101244;28;20339;-95
2023/04/05 05:51:24;;;;;;;17.20;8.97;;;-1.80;99.90;;;;;;5100408;28;20517;-94
2023/04/05 05:53:51;;;;;;;25.40;10.00;;;-1.70;99.90;;;;;;5101139;28;20023;-95
2023/04/05 05:56:17;;;;;;;18.73;9.43;;;-1.70;99.90;;;;;;5100347;28;20470;-93
2023/04/05 05:58:43;;;;;;;22.13;10.50;;;-1.60;99.90;;;;;;5099626;28;20016;-93
2023/04/05 06:01:10;;;;;;;15.43;9.43;;;-1.50;99.90;;;;;;5100836;28;20066;-94
2023/04/05 06:03:37;;;;;;;17.73;9.30;;;-1.50;99.90;;;;;;5100390;28;20044;-94
2023/04/05 06:06:07;;;;;;;15.67;8.97;;;-1.40;99.90;;;;;;5099986;28;20020;-93
2023/04/05 06:08:34;;;;;;;14.57;9.23;;;-1.40;99.90;;;;;;5099315;28;20020;-92
2023/04/05 06:11:01;;;;;;;17.47;11.20;;;-1.30;99.90;;;;;;5097464;28;20032;-91
2023/04/05 06:13:27;;;;;;;22.30;10.27;;;-1.20;99.90;;;;;;5096978;28;20360;-92
2023/04/05 06:15:56;;;;;;;17.53;10.87;;;-1.10;99.90;;;;;;5096831;28;20020;-92
2023/04/05 06:18:22;;;;;;;23.60;8.67;;;-1.00;99.90;;;;;;5096490;28;20315;-92
2023/04/05 06:20:48;;;;;;;19.57;9.33;;;-0.90;99.90;;;;;;5096276;28;20518;-91
2023/04/05 06:23:14;;;;;;;15.80;9.60;;;-0.90;99.90;;;;;;5097830;28;20450;-92
2023/04/05 06:25:42;;;;;;;13.20;7.63;;;-0.80;99.90;;;;;;5096027;28;20028;-93
2023/04/05 06:28:08;;;;;;;16.83;8.07;;;-0.70;99.90;;;;;;5097100;28;20324;-92
2023/04/05 06:30:35;;;;;;;17.23;9.10;;;-0.60;99.90;;;;;;5096421;28;20469;-92
2023/04/05 06:33:01;;;;;;;16.20;9.10;;;-0.50;99.90;;;;;;5099086;28;20422;-93
2023/04/05 06:38:52;;;;;;;18.10;9.17;;;-0.30;99.90;;;;;;5098196;28;20362;-93
2023/04/05 06:41:18;;;;;;;17.00;8.33;;;-0.20;99.90;;;;;;5097496;28;20455;-93
2023/04/05 06:43:44;;;;;;;12.93;7.50;;;-0.10;99.90;;;;;;5097635;28;20024;-93
2023/04/05 06:46:12;;;;;;;11.40;6.93;;;0.00;99.90;;;;;;5097300;28;20012;-93
2023/04/05 06:48:38;;;;;;;11.50;6.10;;;0.10;99.90;;;;;;5097230;28;20406;-93
2023/04/05 06:51:04;;;;;;;9.63;6.13;;;0.20;99.90;;;;;;5097816;28;20450;-92
2023/04/05 06:53:31;;;;;;;9.60;5.70;;;0.20;99.90;;;;;;5096955;28;20481;-93
2023/04/05 06:55:59;;;;;;;14.33;7.90;;;0.40;99.90;;;;;;5097626;28;20546;-93
2023/04/05 06:58:27;;;;;;;12.57;6.23;;;0.50;99.90;;;;;;5098658;28;20020;-93
2023/04/05 07:00:53;;;;;;;12.37;5.90;;;0.60;99.90;;;;;;5097461;28;20079;-93
2023/04/05 07:03:19;;;;;;;12.50;5.90;;;0.70;99.90;;;;;;5098127;28;20454;-93
2023/04/05 07:05:59;;;;;;;13.03;5.33;;;0.80;99.90;;;;;;5097278;28;20370;-92
2023/04/05 07:08:26;;;;;;;12.27;5.77;;;0.80;99.90;;;;;;5097864;28;20396;-92
2023/04/05 07:10:52;;;;;;;13.40;6.80;;;0.90;99.90;;;;;;5095871;28;20446;-92
2023/04/05 07:13:20;;;;;;;9.30;5.60;;;1.00;99.90;;;;;;5098270;28;20331;-92
2023/04/05 07:15:46;;;;;;;14.20;7.63;;;1.10;99.90;;;;;;5100216;28;20024;-91
2023/04/05 07:18:15;;;;;;;17.27;9.80;;;1.20;99.90;;;;;;5099053;28;20082;-93
2023/04/05 07:20:42;;;;;;;12.23;6.93;;;1.30;99.90;;;;;;5096628;28;20016;-90
2023/04/05 07:23:08;;;;;;;22.07;11.47;;;1.40;99.90;;;;;;5096685;28;20469;-91
2023/04/05 07:25:34;;;;;;;14.10;6.67;;;1.50;99.90;;;;;;5096589;28;20027;-90
2023/04/05 07:28:00;;;;;;;13.40;5.57;;;1.50;99.90;;;;;;5097849;28;20462;-91
2023/04/05 07:30:27;;;;;;;13.27;5.53;;;1.60;99.90;;;;;;5097094;28;20435;-91
2023/04/05 07:32:54;;;;;;;12.07;8.37;;;1.70;99.90;;;;;;5098807;28;20445;-92
2023/04/05 07:35:20;;;;;;;14.50;7.90;;;1.80;99.90;;;;;;5096271;28;20026;-91
2023/04/05 07:37:45;;;;;;;20.10;10.70;;;1.90;99.90;;;;;;5100446;28;20114;-92
2023/04/05 07:40:12;;;;;;;32.33;15.43;;;2.00;99.90;;;;;;5099838;28;20024;-92
2023/04/05 07:42:38;;;;;;;9.70;6.10;;;2.00;99.90;;;;;;5100777;28;20370;-92
2023/04/05 07:48:27;;;;;;;11.07;5.83;;;2.30;99.90;;;;;;5101390;28;20069;-91
2023/04/05 07:50:54;;;;;;;10.17;6.20;;;2.40;99.90;;;;;;5100547;28;20036;-91
2023/04/05 07:53:20;;;;;;;8.30;5.23;;;2.40;99.90;;;;;;5082517;28;20027;-91
2023/04/05 07:55:46;;;;;;;10.60;5.17;;;2.40;99.90;;;;;;5098724;28;20024;-92
2023/04/05 07:58:12;;;;;;;8.27;4.77;;;2.50;99.90;;;;;;5100350;28;20019;-92
2023/04/05 08:00:38;;;;;;;12.23;5.40;;;2.60;99.90;;;;;;5099182;28;20405;-91
2023/04/05 08:03:04;;;;;;;9.27;6.00;;;2.70;99.90;;;;;;5099441;28;20012;-92
2023/04/05 08:05:30;;;;;;;10.03;5.30;;;2.80;99.90;;;;;;5099055;28;20478;-92
2023/04/05 08:07:57;;;;;;;9.93;4.93;;;2.90;99.90;;;;;;5098907;28;20520;-92
2023/04/05 08:10:23;;;;;;;9.80;5.00;;;2.90;99.90;;;;;;5098852;28;20171;-92
2023/04/05 08:12:49;;;;;;;10.80;7.00;;;3.00;99.90;;;;;;5098763;28;20455;-92
2023/04/05 08:15:15;;;;;;;9.77;4.63;;;3.00;99.90;;;;;;5099764;28;20361;-93
2023/04/05 08:17:41;;;;;;;7.33;4.93;;;3.00;99.90;;;;;;5098712;28;20102;-93
2023/04/05 08:20:08;;;;;;;9.47;5.10;;;3.00;99.90;;;;;;5098349;28;20020;-90
2023/04/05 08:22:34;;;;;;;9.77;5.13;;;3.00;99.90;;;;;;5098383;28;20462;-92
2023/04/05 08:25:00;;;;;;;8.67;4.60;;;3.00;99.90;;;;;;5098575;28;20519;-91
2023/04/05 08:27:25;;;;;;;8.83;5.20;;;3.00;99.90;;;;;;5098837;28;20024;-91
2023/04/05 08:29:54;;;;;;;10.53;4.93;;;3.00;99.90;;;;;;5098843;28;20028;-91
2023/04/05 08:32:20;;;;;;;7.50;4.47;;;3.00;99.90;;;;;;5098608;28;20470;-91
2023/04/05 08:34:46;;;;;;;11.03;5.47;;;3.00;99.90;;;;;;5098827;28;20476;-91
2023/04/05 08:37:13;;;;;;;7.63;4.70;;;3.20;99.90;;;;;;5100721;28;20012;-92
2023/04/05 08:39:39;;;;;;;9.07;4.97;;;3.30;99.90;;;;;;5099139;28;20398;-92
2023/04/05 08:42:22;;;;;;;11.50;4.60;;;3.40;99.90;;;;;;5099084;28;20023;-92
2023/04/05 08:44:51;;;;;;;9.27;4.77;;;3.50;99.90;;;;;;5098418;28;20366;-92
2023/04/05 08:47:22;;;;;;;13.37;4.80;;;3.60;99.90;;;;;;5099570;28;20474;-92
2023/04/05 08:49:49;;;;;;;6.90;4.40;;;3.60;99.90;;;;;;5099718;28;20470;-92
2023/04/05 08:52:15;;;;;;;7.73;4.73;;;3.80;99.90;;;;;;5098690;28;20466;-92
2023/04/05 08:54:41;;;;;;;8.93;4.57;;;4.00;99.90;;;;;;5099567;28;20047;-91
2023/04/05 08:57:08;;;;;;;10.27;4.47;;;4.00;99.90;;;;;;5095473;28;20466;-89
2023/04/05 08:59:39;;;;;;;9.87;4.97;;;4.20;99.90;;;;;;5095882;28;20458;-89
2023/04/05 09:02:13;;;;;;;10.97;4.80;;;4.20;99.90;;;;;;5096133;28;20470;-88
2023/04/05 09:04:43;;;;;;;9.07;4.97;;;4.30;99.90;;;;;;5096237;28;20454;-88
2023/04/05 09:07:12;;;;;;;10.30;4.60;;;4.40;99.90;;;;;;5095777;28;20469;-89
2023/04/05 09:09:41;;;;;;;9.57;5.07;;;4.50;99.90;;;;;;5095592;28;20504;-89
2023/04/05 09:12:07;;;;;;;7.97;4.40;;;4.70;99.90;;;;;;5095849;28;20448;-89
2023/04/05 09:14:34;;;;;;;8.83;4.63;;;4.80;99.90;;;;;;5095661;28;20403;-89
2023/04/05 09:17:02;;;;;;;10.40;4.30;;;4.80;99.90;;;;;;5095705;28;20518;-89
2023/04/05 09:19:29;;;;;;;7.90;4.13;;;4.70;99.90;;;;;;5095775;28;20450;-88
2023/04/05 09:22:05;;;;;;;7.00;3.90;;;4.90;99.90;;;;;;5095187;28;20465;-88
2023/04/05 09:24:34;;;;;;;8.17;4.40;;;5.10;99.90;;;;;;5095556;28;20450;-89
2023/04/05 09:27:10;;;;;;;8.53;4.47;;;5.30;99.90;;;;;;5095255;28;20488;-89
2023/04/05 09:29:41;;;;;;;8.80;5.13;;;5.20;99.90;;;;;;5095202;28;20466;-89
2023/04/05 09:32:10;;;;;;;8.47;4.63;;;5.00;99.90;;;;;;5093984;28;20517;-88
2023/04/05 09:34:37;;;;;;;9.53;4.60;;;5.00;99.90;;;;;;5095333;28;20411;-88
2023/04/05 09:37:23;;;;;;;10.47;4.87;;;5.20;99.90;;;;;;5093711;28;20455;-88
2023/04/05 09:39:53;;;;;;;9.60;4.50;;;5.40;99.90;;;;;;5095407;28;20515;-88
2023/04/05 09:42:23;;;;;;;7.33;4.13;;;5.70;99.90;;;;;;5093473;28;20366;-89
2023/04/05 09:45:01;;;;;;;6.53;3.93;;;6.00;99.90;;;;;;5094630;28;20417;-89
2023/04/05 09:47:33;;;;;;;8.20;4.33;;;6.20;99.90;;;;;;5094613;28;20439;-89
2023/04/05 09:50:14;;;;;;;8.47;3.87;;;6.60;99.90;;;;;;5094686;28;20406;-89
2023/04/05 09:52:41;;;;;;;7.47;4.30;;;6.80;99.90;;;;;;5094786;28;20419;-89
2023/04/05 09:55:08;;;;;;;6.77;4.23;;;7.10;99.90;;;;;;5095085;28;20035;-88
2023/04/05 09:57:44;;;;;;;7.97;4.20;;;7.30;99.90;;;;;;5094855;28;20450;-89
2023/04/05 10:00:19;;;;;;;5.20;3.80;;;7.20;99.90;;;;;;5094023;28;20534;-88
2023/04/05 10:02:50;;;;;;;8.40;4.40;;;7.10;99.90;;;;;;5094120;28;20347;-88
2023/04/05 10:05:16;;;;;;;7.80;4.70;;;7.20;99.90;;;;;;5094260;28;20484;-89
2023/04/05 10:07:44;;;;;;;6.40;3.90;;;7.20;99.90;;;;;;5094225;28;20463;-88
2023/04/05 10:10:11;;;;;;;5.47;3.90;;;7.10;99.90;;;;;;5094322;28;20472;-88
2023/04/05 10:12:40;;;;;;;7.70;4.27;;;7.10;99.90;;;;;;5094534;28;20443;-85
2023/04/05 10:15:11;;;;;;;12.43;7.33;;;7.20;99.90;;;;;;5093773;28;20442;-79
2023/04/05 10:17:38;;;;;;;9.33;5.00;;;7.20;99.90;;;;;;5094135;28;20426;-88
2023/04/05 10:20:18;;;;;;;6.67;4.23;;;7.20;99.80;;;;;;5094522;28;20454;-88
2023/04/05 10:23:08;;;;;;;10.60;7.93;;;7.20;99.40;;;;;;5094698;28;20526;-88
2023/04/05 10:25:53;;;;;;;5.03;3.43;;;7.20;98.80;;;;;;5094066;28;20522;-89
2023/04/05 10:28:32;;;;;;;7.97;4.10;;;7.00;98.40;;;;;;5093389;28;20470;-88
2023/04/05 10:31:38;;;;;;;5.77;3.70;;;7.00;99.50;;;;;;5095194;28;20446;-89
2023/04/05 10:34:05;;;;;;;6.88;3.80;;;7.10;99.90;;;;;;5095073;28;20538;-88
2023/04/05 10:36:55;;;;;;;6.63;3.33;;;7.50;98.90;;;;;;5094703;28;20495;-90
2023/04/05 10:39:32;;;;;;;5.77;3.77;;;7.60;95.90;;;;;;5094994;28;20518;-89
2023/04/05 10:42:10;;;;;;;6.57;3.50;;;8.00;96.90;;;;;;5094463;28;20450;-89
2023/04/05 10:44:38;;;;;;;5.20;3.97;;;8.10;94.60;;;;;;5093310;28;20539;-89
2023/04/05 10:47:05;;;;;;;4.97;3.30;;;8.30;94.50;;;;;;5092821;28;20039;-89
2023/04/05 10:49:48;;;;;;;6.30;3.77;;;8.30;93.80;;;;;;5092692;28;20374;-89
2023/04/05 10:52:15;;;;;;;6.07;3.80;;;8.50;95.70;;;;;;5094115;28;20466;-90
2023/04/05 10:54:43;;;;;;;9.23;5.03;;;8.60;94.70;;;;;;5095175;28;20024;-91
2023/04/05 10:57:10;;;;;;;8.73;4.03;;;8.60;95.80;;;;;;5095001;28;20340;-89
2023/04/05 10:59:44;;;;;;;8.27;4.30;;;8.40;94.00;;;;;;5094819;28;20458;-88
2023/04/05 11:02:12;;;;;;;7.28;4.13;;;8.20;95.00;;;;;;5093259;28;20055;-91
2023/04/05 11:04:40;;;;;;;7.47;4.30;;;7.90;96.00;;;;;;5093518;28;20542;-90
2023/04/05 11:07:17;;;;;;;7.70;4.00;;;8.10;95.30;;;;;;5095571;28;20028;-90
2023/04/05 11:10:00;;;;;;;9.30;4.20;;;8.20;97.20;;;;;;5094737;28;20485;-90
2023/04/05 11:12:44;;;;;;;6.47;3.90;;;8.60;95.50;;;;;;5099716;28;20466;-91
2023/04/05 11:15:31;;;;;;;6.43;3.75;;;9.00;94.20;;;;;;5098938;28;20481;-90
2023/04/05 11:18:05;;;;;;;6.20;3.70;;;9.00;92.80;;;;;;5099672;28;20458;-90
2023/04/05 11:20:54;;;;;;;6.60;4.43;;;9.00;92.80;;;;;;5099008;28;20530;-91
2023/04/05 11:23:22;;;;;;;7.87;4.10;;;9.00;91.00;;;;;;5097588;28;20042;-91
2023/04/05 11:25:52;;;;;;;10.53;4.00;;;8.80;93.00;;;;;;5096831;28;20465;-88
2023/04/05 11:28:48;;;;;;;7.27;4.33;;;8.60;92.10;;;;;;5098032;28;20458;-89
2023/04/05 11:31:24;;;;;;;6.77;3.60;;;8.40;91.90;;;;;;5090770;28;20554;-89
2023/04/05 11:33:57;;;;;;;8.63;4.07;;;8.10;92.00;;;;;;5098294;28;20523;-90
2023/04/05 11:36:44;;;;;;;5.00;3.90;;;8.00;93.00;;;;;;5098857;28;20422;-90
2023/04/05 11:39:22;;;;;;;6.20;3.77;;;8.00;93.20;;;;;;5098021;28;20450;-91
2023/04/05 11:41:55;;;;;;;6.93;4.70;;;8.30;92.30;;;;;;5097742;28;20516;-91
2023/04/05 11:44:25;;;;;;;8.33;4.40;;;8.70;92.60;;;;;;5099371;28;20451;-90
2023/04/05 11:46:53;;;;;;;5.77;4.03;;;8.90;92.70;;;;;;5099435;28;20504;-91
2023/04/05 11:49:23;;;;;;;7.97;4.70;;;9.20;90.90;;;;;;5100248;28;20474;-91
2023/04/05 11:52:08;;;;;;;6.23;3.70;;;9.70;89.00;;;;;;5098651;28;20545;-90
2023/04/05 11:54:34;;;;;;;6.55;3.92;;;9.90;90.60;;;;;;5099379;28;20493;-91
2023/04/05 11:57:02;;;;;;;7.27;4.27;;;10.00;90.70;;;;;;5099323;28;20027;-92
2023/04/05 11:59:37;;;;;;;5.73;3.47;;;9.50;89.10;;;;;;5099027;28;20442;-91
2023/04/05 12:02:06;;;;;;;6.72;4.20;;;9.40;91.50;;;;;;5098826;28;20454;-89
2023/04/05 12:04:33;;;;;;;5.97;4.17;;;9.30;91.30;;;;;;5099321;28;20042;-90
2023/04/05 12:07:19;;;;;;;5.57;3.93;;;9.30;90.30;;;;;;5099166;28;20485;-90
2023/04/05 12:09:58;;;;;;;;;;;9.30;92.70;;;;;;5098508;28;20488;-89
2023/04/05 12:12:24;;;;;;;5.50;4.20;;;9.40;91.00;;;;;;5098424;28;20421;-89
2023/04/05 12:14:50;;;;;;;7.37;4.10;;;9.50;90.60;;;;;;5096758;28;20098;-90
2023/04/05 12:17:16;;;;;;;6.87;4.67;;;9.50;91.90;;;;;;5097185;28;20047;-90
2023/04/05 12:19:42;;;;;;;7.43;4.80;;;9.50;92.00;;;;;;5098743;28;20509;-89
2023/04/05 12:22:08;;;;;;;7.57;4.70;;;9.60;92.10;;;;;;5096425;28;20465;-92
2023/04/05 12:24:34;;;;;;;9.07;4.67;;;9.60;90.90;;;;;;5096690;28;20518;-91
2023/04/05 12:27:01;;;;;;;8.77;4.47;;;9.50;92.60;;;;;;5098673;28;20496;-92
2023/04/05 12:29:27;;;;;;;6.10;4.13;;;9.50;92.40;;;;;;5099525;28;20361;-91
2023/04/05 12:31:56;;;;;;;7.50;4.80;;;9.70;91.80;;;;;;5098268;28;20766;-90
2023/04/05 12:34:25;;;;;;;8.40;4.13;;;9.70;89.70;;;;;;5099161;28;20322;-90
2023/04/05 12:36:51;;;;;;;8.93;4.00;;;9.90;89.60;;;;;;5098425;28;20451;-91
2023/04/05 12:39:17;;;;;;;6.17;4.47;;;9.90;90.60;;;;;;5098167;28;20515;-92
2023/04/05 12:41:44;;;;;;;7.63;3.50;;;10.10;87.00;;;;;;5098311;28;20454;-91
2023/04/05 12:44:37;;;;;;;5.47;4.33;;;10.00;89.90;;;;;;5097582;28;20462;-91
2023/04/05 12:47:06;;;;;;;6.07;4.10;;;10.20;90.50;;;;;;5096725;28;20028;-91
2023/04/05 12:49:39;;;;;;;6.13;3.90;;;10.20;89.70;;;;;;5096516;28;20492;-91
2023/04/05 12:52:05;;;;;;;7.63;4.53;;;10.00;88.70;;;;;;5098400;28;20028;-91
2023/04/05 12:54:33;;;;;;;7.20;4.63;;;9.90;86.00;;;;;;5095830;28;20354;-91
2023/04/05 12:57:07;;;;;;;6.33;4.23;;;9.80;88.00;;;;;;5097097;28;20393;-91
2023/04/05 12:59:38;;;;;;;8.27;4.47;;;9.90;91.90;;;;;;5096136;28;20411;-91
2023/04/05 13:02:05;;;;;;;8.13;4.73;;;10.20;90.90;;;;;;5095551;28;20647;-90
2023/04/05 13:04:31;;;;;;;8.97;4.40;;;10.40;91.00;;;;;;5096968;28;20023;-90
2023/04/05 13:07:06;;;;;;;5.70;4.00;;;10.40;87.80;;;;;;5095774;28;20470;-91